Latest Weather Observations for Ceduna

IDS60801

Issued at 6:35 am CST Tuesday 2 September 2014 (issued every 30 minutes, with the page automatically refreshed every 10 minutes)

About weather observations | Map of weather stations | Latest weather observations for SA | Other Formats
Station Details ID: 018012 Name: CEDUNA AMO Lat: -32.13 Lon: 133.70 Height: 15.3 m
Data from the previous 72 hours. | See also: Recent months at Ceduna
Date/Time
CST
Temp
°C
App
Temp
°C
Dew
Point
Rel
Hum
%
Delta-T
°C
Wind Press
QNH
hPa
Press
MSL
hPa
Rain
since 9 am
mm
Dir
 
Spd
km/h
Gust
km/h
Spd
kts
Gust
kts
02/06:30am 12.0 6.8 2.2 51 4.2 SSW 19 28 10 15 1027.2 1027.2 2.6
02/06:00am 11.2 6.6 1.7 52 4.0 S 15 19 8 10 1027.4 1027.4 2.6
02/05:30am 11.5 6.5 1.5 50 4.2 S 17 22 9 12 1027.0 1027.0 2.6
02/05:00am 11.3 5.9 1.2 50 4.2 S 19 26 10 14 1026.9 1026.9 2.6
02/04:30am 12.1 6.2 1.4 48 4.5 S 22 33 12 18 1026.3 1026.3 2.6
02/04:00am 12.2 7.1 3.3 54 3.9 S 19 26 10 14 1026.5 1026.5 2.6
02/03:30am 11.4 8.7 5.5 67 2.7 S 9 13 5 7 1026.5 1026.5 2.6
02/03:00am 12.0 7.6 4.7 61 3.3 SSW 17 24 9 13 1026.2 1026.2 2.6
02/02:30am 10.7 7.5 5.2 69 2.5 S 11 17 6 9 1026.4 1026.4 2.6
02/02:00am 10.6 6.7 5.3 70 2.4 S 15 19 8 10 1026.1 1026.1 2.6
02/01:30am 11.6 6.8 5.5 66 2.8 S 20 30 11 16 1026.3 1026.3 2.6
02/01:00am 11.7 7.0 5.1 64 3.0 S 19 24 10 13 1026.3 1026.3 2.6
02/12:30am 12.2 7.7 4.2 58 3.6 S 17 24 9 13 1026.4 1026.4 2.6
02/12:00am 12.3 7.7 3.8 56 3.8 S 17 24 9 13 1026.4 1026.4 2.6
 
Date/Time
CST
Temp
°C
App
Temp
°C
Dew
Point
Rel
Hum
%
Delta-T
°C
Wind Press
QNH
hPa
Press
MSL
hPa
Rain
since 9 am
mm
Dir
 
Spd
km/h
Gust
km/h
Spd
kts
Gust
kts
01/11:30pm 11.9 7.3 5.4 64 3.0 S 19 30 10 16 1026.2 1026.2 2.6
01/11:00pm 11.9 7.0 5.1 63 3.1 S 20 28 11 15 1025.9 1025.9 2.6
01/10:30pm 12.3 7.5 5.6 63 3.1 SSW 20 26 11 14 1025.8 1025.8 2.6
01/10:00pm 12.7 6.5 4.3 56 3.8 SW 26 35 14 19 1025.5 1025.5 2.6
01/09:30pm 12.1 7.1 4.8 61 3.3 SSW 20 28 11 15 1025.4 1025.4 2.6
01/09:00pm 12.4 6.3 5.0 60 3.4 SSW 26 35 14 19 1025.2 1025.2 2.6
01/08:30pm 12.2 6.4 4.4 59 3.5 SSW 24 30 13 16 1024.9 1024.9 2.6
01/08:00pm 12.4 6.6 4.2 57 3.7 SSW 24 35 13 19 1024.5 1024.5 2.6
01/07:30pm 12.6 6.5 5.0 60 3.5 SW 26 33 14 18 1024.0 1024.0 2.6
01/07:00pm 12.9 6.6 5.6 61 3.4 SW 28 35 15 19 1023.5 1023.5 2.6
01/06:30pm 12.7 6.2 4.6 58 3.7 SW 28 37 15 20 1023.1 1023.1 2.6
01/06:00pm 13.0 7.5 5.7 61 3.4 SW 24 33 13 18 1022.7 1022.7 2.6
01/05:30pm 13.4 7.1 5.7 59 3.6 SW 28 39 15 21 1022.3 1022.3 2.6
01/05:00pm 13.6 7.7 7.5 66 3.0 SSW 28 41 15 22 1021.7 1021.7 2.6
01/04:30pm 14.0 7.2 7.0 62 3.4 SW 32 43 17 23 1021.2 1021.2 2.6
01/04:00pm 13.1 8.7 10.4 84 1.4 SW 24 33 13 18 1020.9 1020.9 2.6
01/03:48pm 12.5 7.4 10.6 88 1.0 SW 28 46 15 25 1020.9 1020.9 2.6
01/03:40pm 11.9 5.9 10.1 89 0.9 WSW 32 46 17 25 1021.0 1021.0 2.4
01/03:30pm 12.3 6.2 9.7 84 1.3 SW 32 54 17 29 1020.7 1020.7 1.8
01/03:21pm 11.7 4.9 9.3 85 1.2 SW 35 61 19 33 1020.8 1020.8 1.4
01/03:18pm 14.1 7.4 8.3 68 2.9 SW 33 54 18 29 1020.6 1020.6 0.2
01/03:00pm 16.2 9.5 8.3 59 4.0 SW 33 43 18 23 1020.0 1020.0 0.2
01/02:30pm 15.2 8.9 9.1 67 3.1 SW 32 41 17 22 1019.9 1019.9 0.2
01/02:00pm 15.3 9.5 9.5 68 3.0 WSW 30 39 16 21 1019.9 1019.9 0.0
01/01:30pm 14.1 7.4 9.8 75 2.2 WSW 35 48 19 26 1019.7 1019.7 0.0
01/01:00pm 16.6 10.5 8.1 57 4.3 WSW 30 39 16 21 1019.3 1019.3 0.0
01/12:30pm 16.3 10.1 7.7 56 4.3 WSW 30 39 16 21 1019.4 1019.4 0.0
01/12:00pm 16.3 10.2 8.4 59 4.0 WSW 30 39 16 21 1019.2 1019.2 0.0
01/11:30am 15.9 9.9 8.6 62 3.7 WSW 30 37 16 20 1019.1 1019.1 0.0
01/11:00am 15.3 10.5 9.0 66 3.2 WSW 24 33 13 18 1019.1 1019.1 0.0
01/10:30am 14.7 10.3 10.5 76 2.2 WSW 24 35 13 19 1019.0 1019.0 0.0
01/10:00am 14.2 9.6 11.2 82 1.6 SW 26 33 14 18 1018.5 1018.5 0.0
01/09:30am 14.5 11.9 11.9 84 1.4 SW 17 20 9 11 1018.5 1018.5 0.0
01/09:00am 13.6 12.0 12.7 94 0.5 W 13 17 7 9 1018.2 1018.2 5.0
01/08:30am 12.7 10.1 11.9 95 0.4 WNW 17 22 9 12 1017.9 1017.9 5.0
01/08:13am 12.6 9.4 11.8 95 0.4 W 20 26 11 14 1017.7 1017.7 4.8
01/08:00am 12.9 10.2 11.8 93 0.6 W 17 20 9 11 1017.5 1017.5 3.4
01/07:57am 12.9 10.2 11.8 93 0.6 W 17 19 9 10 1017.4 1017.4 3.2
01/07:30am 12.8 10.2 11.9 94 0.5 WNW 17 20 9 11 1016.6 1016.6 3.2
01/07:00am 12.5 11.4 11.9 96 0.3 NW 9 11 5 6 1016.3 1016.3 3.2
01/06:30am 12.6 11.5 12.0 96 0.3 NNW 9 11 5 6 1015.9 1015.9 3.2
01/06:00am 12.3 11.5 11.7 96 0.3 WNW 7 9 4 5 1015.9 1015.9 3.2
01/05:30am 12.5 11.8 11.9 96 0.3 W 7 9 4 5 1015.4 1015.4 3.2
01/05:00am 12.5 11.0 11.9 96 0.3 N 11 13 6 7 1015.0 1015.0 3.0
01/04:30am 12.7 11.9 11.8 94 0.5 ESE 7 9 4 5 1015.0 1015.0 2.8
01/04:00am 13.3 11.8 12.0 92 0.7 SSW 11 15 6 8 1015.2 1015.2 2.6
01/03:30am 13.2 11.8 12.1 93 0.6 S 11 13 6 7 1015.1 1015.1 2.6
01/03:00am 13.4 12.8 12.3 93 0.6 SW 7 11 4 6 1015.1 1015.1 2.6
01/02:30am 13.5 11.8 12.4 93 0.6 SSW 13 17 7 9 1014.3 1014.3 2.4
01/02:00am 12.9 11.3 11.6 92 0.7 SSW 11 15 6 8 1014.4 1014.4 2.2
01/01:30am 13.0 12.5 11.9 93 0.6 SSW 6 7 3 4 1014.1 1014.1 2.2
01/01:00am 13.3 12.3 12.2 93 0.6 S 9 11 5 6 1014.0 1014.0 2.0
01/12:30am 13.4 12.0 12.3 93 0.6 S 11 17 6 9 1014.5 1014.5 1.8
01/12:00am 13.6 11.5 12.5 93 0.6 S 15 20 8 11 1014.0 1014.0 1.6
 
Date/Time
CST
Temp
°C
App
Temp
°C
Dew
Point
Rel
Hum
%
Delta-T
°C
Wind Press
QNH
hPa
Press
MSL
hPa
Rain
since 9 am
mm
Dir
 
Spd
km/h
Gust
km/h
Spd
kts
Gust
kts
31/11:30pm 14.0 12.1 12.9 93 0.6 S 15 19 8 10 1013.9 1013.9 0.6
31/11:00pm 14.4 11.9 13.5 94 0.5 SW 19 24 10 13 1014.0 1014.0 0.6
31/10:30pm 13.9 13.1 13.0 94 0.5 SW 9 11 5 6 1013.6 1013.6 0.6
31/10:00pm 13.9 13.2 13.2 96 0.4 SSW 9 11 5 6 1013.5 1013.5 0.6
31/09:30pm 14.2 13.9 13.3 94 0.5 SSW 7 9 4 5 1013.6 1013.6 0.6
31/09:00pm 14.6 11.1 13.5 93 0.6 NE 24 30 13 16 1013.2 1013.2 0.6
31/08:30pm 14.9 13.5 13.5 91 0.8 SW 13 17 7 9 1014.8 1014.8 0.0
31/08:00pm 14.4 13.6 12.8 90 0.9 S 9 11 5 6 1013.9 1013.9 0.0
31/07:30pm 14.6 13.9 13.2 91 0.8 SSE 9 13 5 7 1012.9 1012.9 0.0
31/07:00pm 14.9 13.5 13.3 90 0.9 SSE 13 17 7 9 1012.6 1012.6 0.0
31/06:30pm 15.3 13.6 13.7 90 0.9 S 15 20 8 11 1012.9 1012.9 0.0
31/06:00pm 15.7 13.2 13.6 87 1.2 S 19 24 10 13 1012.8 1012.8 0.0
31/05:30pm 15.9 13.4 13.6 86 1.3 SSW 19 24 10 13 1012.5 1012.5 0.0
31/05:00pm 16.3 13.2 13.5 83 1.6 SSW 22 30 12 16 1012.3 1012.3 0.0
31/04:30pm 16.8 13.9 13.0 78 2.1 SSW 20 28 11 15 1011.9 1011.9 0.0
31/04:00pm 16.9 13.4 12.2 74 2.6 SW 22 30 12 16 1012.0 1012.0 0.0
31/03:30pm 17.9 14.8 10.2 60 4.1 SW 17 20 9 11 1011.8 1011.8 0.0
31/03:00pm 18.2 15.7 8.3 52 5.1 SSW 11 15 6 8 1011.4 1011.4 0.0
31/02:30pm 18.7 14.8 5.4 41 6.5 SW 15 19 8 10 1011.5 1011.5 0.0
31/02:00pm 19.9 16.5 4.0 35 7.6 SW 11 15 6 8 1011.4 1011.4 0.0
31/01:30pm 21.0 16.1 -3.1 19 10.1 W 13 17 7 9 1011.4 1011.4 0.0
31/01:00pm 21.1 17.5 0.5 25 9.3 W 9 13 5 7 1011.7 1011.7 0.0
31/12:30pm 21.0 16.6 0.6 25 9.2 W 13 17 7 9 1012.1 1012.1 0.0
31/12:00pm 21.9 16.6 -3.2 18 10.6 NW 15 19 8 10 1012.3 1012.3 0.0
31/11:30am 21.4 15.7 -4.0 18 10.5 NNW 17 22 9 12 1012.3 1012.3 0.0
31/11:00am 21.1 15.0 -4.3 18 10.4 NNW 19 24 10 13 1012.8 1012.8 0.0
31/10:30am 20.6 15.3 -4.0 19 10.1 N 15 22 8 12 1012.9 1012.9 0.0
31/10:00am 19.3 14.5 -2.9 22 9.2 N 13 17 7 9 1013.4 1013.4 0.0
31/09:30am 18.4 12.8 -3.2 23 8.8 N 17 22 9 12 1013.6 1013.6 0.0
31/09:00am 18.2 12.7 1.8 33 7.4 N 20 24 11 13 1013.5 1013.5 0.0
31/08:30am 17.6 14.6 4.0 40 6.4 NNE 9 15 5 8 1013.8 1013.8 0.0
31/08:00am 13.1 10.9 3.2 51 4.4 NE 4 7 2 4 1014.0 1014.0 0.0
31/07:30am 10.4 6.2 1.6 54 3.7 NE 13 13 7 7 1013.5 1013.5 0.0
31/07:00am 9.9 6.4 3.7 65 2.7 NE 11 13 6 7 1013.4 1013.4 0.0
31/06:30am 10.8 7.0 4.1 63 3.0 NE 13 17 7 9 1013.2 1013.2 0.0
31/06:00am 10.8 6.1 3.2 59 3.3 NE 17 19 9 10 1013.0 1013.0 0.0
31/05:30am 10.9 6.5 4.7 65 2.8 NNE 17 19 9 10 1013.0 1013.0 0.0
31/05:00am 11.0 7.1 5.3 68 2.6 N 15 17 8 9 1013.1 1013.1 0.0
31/04:30am 13.4 10.8 9.3 76 2.1 NNW 13 15 7 8 1013.2 1013.2 0.0
31/04:00am 14.8 12.5 11.8 82 1.6 WNW 15 19 8 10 1013.3 1013.3 0.0
31/03:30am 16.0 15.1 14.8 93 0.7 WNW 13 17 7 9 1013.6 1013.6 0.0
31/03:00am 16.3 14.2 16.3 100 0.0 WSW 22 28 12 15 1013.7 1013.7 0.0
31/02:30am 17.6 15.6 17.3 98 0.2 N 24 32 13 17 1012.6 1012.6 0.0
31/02:00am 18.3 16.0 17.6 96 0.4 N 26 35 14 19 1012.7 1012.7 0.0
31/01:30am 18.6 15.3 16.1 85 1.5 N 28 39 15 21 1012.8 1012.8 0.0
31/01:00am 18.9 14.3 12.2 65 3.7 N 28 33 15 18 1013.1 1013.1 0.0
31/12:30am 19.2 13.8 8.2 49 5.7 NNE 26 33 14 18 1013.3 1013.3 0.0
31/12:00am 19.6 13.5 6.4 42 6.6 NNE 28 37 15 20 1013.4 1013.4 0.0
 
Date/Time
CST
Temp
°C
App
Temp
°C
Dew
Point
Rel
Hum
%
Delta-T
°C
Wind Press
QNH
hPa
Press
MSL
hPa
Rain
since 9 am
mm
Dir
 
Spd
km/h
Gust
km/h
Spd
kts
Gust
kts
30/11:30pm 19.9 13.2 1.4 29 8.4 NNE 26 33 14 18 1013.7 1013.7 0.0
30/11:00pm 20.0 13.0 -3.2 20 9.6 NNE 24 33 13 18 1013.9 1013.9 0.0
30/10:30pm 19.2 13.0 -3.2 21 9.2 NNE 20 24 11 13 1014.1 1014.1 0.0
30/10:00pm 16.9 11.3 -2.5 26 7.9 NE 17 20 9 11 1014.6 1014.6 0.0
30/09:30pm 16.0 10.1 -2.2 28 7.4 NE 19 20 10 11 1014.9 1014.9 0.0
30/09:00pm 15.4 9.4 -1.8 30 7.0 NE 20 22 11 12 1015.0 1015.0 0.0
30/08:30pm 16.0 10.0 -1.4 30 7.2 NE 20 22 11 12 1015.1 1015.1 0.0
30/08:00pm 16.5 10.6 -0.9 30 7.3 NE 20 22 11 12 1015.2 1015.2 0.0
30/07:30pm 18.2 12.2 -1.5 26 8.3 NE 20 24 11 13 1015.1 1015.1 0.0
30/07:00pm 16.8 11.6 0.4 33 7.1 NE 17 20 9 11 1015.3 1015.3 0.0
30/06:30pm 19.2 14.5 0.8 29 8.2 NNE 15 17 8 9 1015.3 1015.3 0.0
30/06:00pm 23.2 18.4 0.5 22 10.4 N 15 17 8 9 1015.2 1015.2 0.0
30/05:30pm 25.7 19.6 -2.3 15 12.4 N 20 26 11 14 1015.2 1015.2 0.0
30/05:00pm 26.3 20.4 -2.6 15 12.8 N 19 26 10 14 1015.2 1015.2 0.0
30/04:30pm 25.9 18.9 -3.2 14 12.7 N 24 32 13 17 1015.2 1015.2 0.0
30/04:00pm 27.0 19.5 -4.7 12 13.6 N 26 37 14 20 1015.2 1015.2 0.0
30/03:30pm 27.3 19.1 -4.4 12 13.7 N 30 41 16 22 1015.4 1015.4 0.0
30/03:00pm 27.8 20.0 -4.0 12 13.9 N 28 39 15 21 1015.6 1015.6 0.0
30/02:30pm 26.9 18.2 -5.1 12 13.6 N 32 43 17 23 1015.9 1015.9 0.0
30/02:00pm 26.3 18.0 -4.7 12 13.2 N 30 39 16 21 1016.4 1016.4 0.0
30/01:30pm 26.6 17.7 -5.5 11 13.5 N 33 44 18 24 1017.0 1017.0 0.0
30/01:00pm 25.7 16.7 -6.0 12 13.1 N 33 44 18 24 1017.7 1017.7 0.0
30/12:30pm 24.5 15.4 -6.8 12 12.6 N 33 43 18 23 1018.3 1018.3 0.0
30/12:00pm 23.5 14.7 -6.4 13 12.0 N 32 44 17 24 1018.8 1018.8 0.0
30/11:30am 23.4 14.5 -7.3 12 12.1 N 32 41 17 22 1019.2 1019.2 0.0
30/11:00am 23.4 14.2 -8.0 11 12.2 N 33 44 18 24 1019.8 1019.8 0.0
30/10:30am 22.5 13.5 -8.4 12 11.8 N 32 41 17 22 1020.3 1020.3 0.0
30/10:00am 21.9 11.9 -9.1 12 11.6 N 37 50 20 27 1020.5 1020.5 0.0
30/09:30am 20.6 11.0 -8.7 13 10.9 N 35 46 19 25 1020.6 1020.6 0.0
30/09:00am 18.6 9.5 -7.4 16 9.7 N 33 48 18 26 1020.6 1020.6 0.0
30/08:30am 16.5 8.1 -6.3 20 8.5 N 30 39 16 21 1020.7 1020.7 0.0
30/08:00am 14.6 7.0 -5.7 24 7.5 N 26 32 14 17 1020.6 1020.6 0.0
30/07:30am 13.6 6.8 -5.4 26 7.0 N 22 28 12 15 1020.5 1020.5 0.0
30/07:00am 13.8 6.5 -6.0 25 7.2 N 24 32 13 17 1020.3 1020.3 0.0

Other Formats:

Comma delimited format used in spreadsheet applications
http://www.bom.gov.au/fwo/IDS60801/IDS60801.94653.axf

JavaScript Object Notation format (JSON) in row-major order
http://www.bom.gov.au/fwo/IDS60801/IDS60801.94653.json